RKSY/SSN METAR and TAF weather

Enter ICAO airport designator
Station Type Date Time Source
RKSY METAR 2019/06/26 16:35 UTC NOAA

RKSY 261635Z AUTO 00000KT 8000 BR FEW007 SCT012 BKN024 OVC031 22/20 A2960 RMK AO2 RAE35 SLP026 $


Station Type Date Time Source
RKSY Decoded METAR 2019/06/26 16:35 UTC NOAA

Yongsan / H-208 Hp, Korea, South (RKSY) 37-31N 126-59E
Jun 26, 2019 - 12:35 PM EDT / 2019.06.26 1635 UTC
Wind: Calm:0
Visibility: 4 mile(s):0
Sky conditions: overcast
Weather: mist
Temperature: 71 F (22 C)
Dew Point: 68 F (20 C)
Relative Humidity: 88%
Pressure (altimeter): 29.6 in. Hg (1002 hPa)
ob: RKSY 261635Z AUTO 00000KT 8000 BR FEW007 SCT012 BKN024 OVC031 22/20 A2960 RMK AO2 RAE35 SLP026
cycle: 16

Station Type Date Time Source
RKSY TAF UTC NOAA

Error!

Example: see airport list